CheckWX is a tool to help pilots better visualize weather data.  It is not intended as a substitute for an official pre-flight weather briefing.

06:04:43 UTC

KUIN TAF
Quincy Regional-Baldwin Field Airport
Quincy, Illinois, USA
KUIN 260520Z 2606/2706 15008KT P6SM BKN150 FM260700 18007KT P6SM VCTS FEW060 BKN100CB FM260900 19007KT P6SM BKN250 FM261600 19009KT P6SM SCT040 FM270100 17004KT P6SM SCT250

Jun-26@
06:00 UTC

Jun-26 @ 06:00 UTC

Jun-26@
07:00 UTC

Jun-26 @ 07:00 UTC

KUIN 260520Z 2606/2706 15008KT P6SM BKN150
Wind
  • 150° at 8 KTS
Cloud Levels
  • Broken at 15,000' AGL

Jun-26@
07:00 UTC

Jun-26 @ 07:00 UTC

Jun-26@
09:00 UTC

Jun-26 @ 09:00 UTC

FM260700 18007KT P6SM VCTS FEW060 BKN100CB

From

From Standard forecast or significant change

Wind
  • 180° at 7 KTS
Conditions
Area Thunderstorm
Cloud Levels
  • Few at 6,000' AGL
  • Broken at 10,000' AGL

Jun-26@
09:00 UTC

Jun-26 @ 09:00 UTC

Jun-26@
16:00 UTC

Jun-26 @ 16:00 UTC

FM260900 19007KT P6SM BKN250

From

From Standard forecast or significant change

Wind
  • 190° at 7 KTS
Cloud Levels
  • Broken at 25,000' AGL

Jun-26@
16:00 UTC

Jun-26 @ 16:00 UTC

Jun-27@
01:00 UTC

Jun-27 @ 01:00 UTC

FM261600 19009KT P6SM SCT040

From

From Standard forecast or significant change

Wind
  • 190° at 9 KTS
Cloud Levels
  • Scattered at 4,000' AGL

Jun-27@
01:00 UTC

Jun-27 @ 01:00 UTC

Jun-27@
06:00 UTC

Jun-27 @ 06:00 UTC

FM270100 17004KT P6SM SCT250

From

From Standard forecast or significant change

Wind
  • 170° at 4 KTS
Cloud Levels
  • Scattered at 25,000' AGL